South Pasadena, Florida
Current Conditions -  °F | °C
As of 7:53 AM on Thursday 23 Oct 2014 (Local Time) from KSPG Reporting Station
Broken Clouds Broken Clouds  
Wind Chill: 21°   Ceiling: 3200
Heat Index: 21°   Visibility: 10mi
Dew Point: 16°   Wind: 17mph
Humidity: 75%   Direction: 50°NE
Pressure: 29.97"   Gusts: NA
Location:  27.7562°N, 82.7184°W
Report Text: KSPG 231153Z 05015KT 10SM BKN032 21/16 A2997 RMK AO2 SLP147 T02060161 10222 20206 53008
Loading
Personal Weather Stations






























Interactive Weather Map
Tropical Storm Tracking
New forecast layout! Learn more

10-Day Weather Forecast

Advertisements
Track Severe Weather on mobile